Shikarpur Weather



Shikarpur's Current Weather

Temprature 25.94o clear sky

clear sky

Rain: 0 %

Min Temprature25.94o
Max Temprature25.94o
Humidity66
Wind Speed4.14 m/h
Sun Rise06:15:34
Sun Set18:18:13
Current Time: 26-Sep-2022 07:49:50
Lat/Lon: 27.9571, 68.6379




Shikarpur's Geo Location



Shikarpur's Weather Forecast

Time Overall Temp Min Temp Max Temp Humidity Wind Speed Rain
26-Sep-2022 (Mon)
08:00:00 clear sky 25.940 25.940 27.310 66 4.14 m/h 0 %
11:00:00 clear sky 28.350 28.350 33.170 57 3.56 m/h 0 %
14:00:00 clear sky 32.760 32.760 36.170 39 2.52 m/h 0 %
17:00:00 clear sky 35.910 35.910 35.910 29 1.1 m/h 0 %
20:00:00 clear sky 30.390 30.390 30.390 33 2.19 m/h 0 %
23:00:00 clear sky 28.620 28.620 28.620 37 2.54 m/h 0 %
27-Sep-2022 (Tue)
02:00:00 clear sky 26.980 26.980 26.980 52 2.8 m/h 0 %
05:00:00 clear sky 26.280 26.280 26.280 63 3.3 m/h 0 %
08:00:00 clear sky 28.180 28.180 28.180 62 3.65 m/h 0 %
11:00:00 clear sky 34.710 34.710 34.710 33 3.52 m/h 0 %
14:00:00 clear sky 36.860 36.860 36.860 25 2.83 m/h 0 %
17:00:00 clear sky 36.220 36.220 36.220 31 1.46 m/h 0 %
20:00:00 clear sky 30.780 30.780 30.780 35 1.86 m/h 0 %
23:00:00 clear sky 28.810 28.810 28.810 42 3.9 m/h 0 %
28-Sep-2022 (Wed)
02:00:00 clear sky 26.720 26.720 26.720 64 3.36 m/h 0 %
05:00:00 clear sky 25.930 25.930 25.930 63 3.52 m/h 0 %
08:00:00 clear sky 27.480 27.480 27.480 63 3.82 m/h 0 %
11:00:00 clear sky 33.460 33.460 33.460 38 2.98 m/h 0 %
14:00:00 clear sky 36.140 36.140 36.140 27 2.35 m/h 0 %
17:00:00 clear sky 35.670 35.670 35.670 29 1.23 m/h 0 %
20:00:00 clear sky 30.180 30.180 30.180 33 1.93 m/h 0 %
23:00:00 clear sky 28.140 28.140 28.140 56 4.32 m/h 0 %
29-Sep-2022 (Thu)
02:00:00 clear sky 26.300 26.300 26.300 67 3.48 m/h 0 %
05:00:00 clear sky 25.010 25.010 25.010 70 3.35 m/h 0 %
08:00:00 clear sky 26.670 26.670 26.670 68 3.16 m/h 0 %
11:00:00 clear sky 32.540 32.540 32.540 41 2.86 m/h 0 %
14:00:00 clear sky 35.680 35.680 35.680 27 2.6 m/h 0 %
17:00:00 clear sky 35.460 35.460 35.460 30 1.14 m/h 0 %
20:00:00 clear sky 29.860 29.860 29.860 36 1.62 m/h 0 %
23:00:00 clear sky 28.680 28.680 28.680 51 4.47 m/h 0 %
30-Sep-2022 (Fri)
02:00:00 clear sky 26.650 26.650 26.650 66 3.58 m/h 0 %
05:00:00 clear sky 25.540 25.540 25.540 68 3.25 m/h 0 %
08:00:00 clear sky 27.510 27.510 27.510 64 3.28 m/h 0 %
11:00:00 clear sky 33.320 33.320 33.320 41 2.88 m/h 0 %
14:00:00 clear sky 36.080 36.080 36.080 27 2.24 m/h 0 %
17:00:00 clear sky 35.500 35.500 35.500 31 1.34 m/h 0 %
20:00:00 clear sky 30.290 30.290 30.290 34 1.49 m/h 0 %
23:00:00 clear sky 28.690 28.690 28.690 38 2.88 m/h 0 %
01-Oct-2022 (Sat)
02:00:00 clear sky 26.000 26.000 26.000 63 3.29 m/h 0 %
05:00:00 clear sky 25.520 25.520 25.520 67 3.27 m/h 0 %

Famous Cities (61)